createdAt,value
2023-10-06T00:01:12.414Z,6.50
2023-10-06T00:03:42.661Z,6.60
2023-10-06T00:06:16.979Z,6.50
2023-10-06T00:08:52.560Z,6.50
2023-10-06T00:11:32.517Z,6.50
2023-10-06T00:14:08.345Z,6.50
2023-10-06T00:16:42.259Z,6.50
2023-10-06T00:19:22.537Z,6.40
2023-10-06T00:22:02.525Z,6.40
2023-10-06T00:24:32.585Z,6.40
2023-10-06T00:27:02.341Z,6.40
2023-10-06T00:29:30.598Z,6.40
2023-10-06T00:32:04.733Z,6.30
2023-10-06T00:34:35.032Z,6.30
2023-10-06T00:37:03.864Z,6.20
2023-10-06T00:39:32.122Z,6.30
2023-10-06T00:42:07.898Z,6.30
2023-10-06T00:44:36.494Z,6.30
2023-10-06T00:47:07.398Z,6.40
2023-10-06T00:49:36.200Z,6.40
2023-10-06T00:52:07.663Z,6.50
2023-10-06T00:54:36.273Z,6.40
2023-10-06T00:57:11.385Z,6.30
2023-10-06T00:59:39.868Z,6.20
2023-10-06T01:02:10.367Z,6.20
2023-10-06T01:04:46.142Z,6.20
2023-10-06T01:07:16.839Z,6.10
2023-10-06T01:09:57.839Z,6.10
2023-10-06T01:12:30.675Z,6.10
2023-10-06T01:15:17.239Z,6.20
2023-10-06T01:17:45.897Z,6.40
2023-10-06T01:20:29.389Z,6.50
2023-10-06T01:22:59.127Z,6.70
2023-10-06T01:25:27.988Z,7.00
2023-10-06T01:27:56.111Z,7.20
2023-10-06T01:30:24.240Z,7.30
2023-10-06T01:32:53.074Z,7.30
2023-10-06T01:35:25.453Z,7.40
2023-10-06T01:38:00.844Z,7.40
2023-10-06T01:40:44.881Z,7.40
2023-10-06T01:43:16.384Z,7.40
2023-10-06T01:45:46.112Z,7.40
2023-10-06T01:48:24.373Z,7.40
2023-10-06T01:50:55.584Z,7.50
2023-10-06T01:53:24.326Z,7.50
2023-10-06T01:55:56.263Z,7.50
2023-10-06T01:58:24.505Z,7.50
2023-10-06T02:00:52.670Z,7.50
2023-10-06T02:03:22.789Z,7.50
2023-10-06T02:05:56.065Z,7.50
2023-10-06T02:08:24.907Z,7.50
2023-10-06T02:10:56.566Z,7.40
2023-10-06T02:13:24.860Z,7.40
2023-10-06T02:16:00.058Z,7.40
2023-10-06T02:18:36.965Z,7.30
2023-10-06T02:21:13.326Z,7.30
2023-10-06T02:23:43.021Z,7.40
2023-10-06T02:26:14.076Z,7.40
2023-10-06T02:28:45.609Z,7.40
2023-10-06T02:31:15.155Z,7.50
2023-10-06T02:33:49.184Z,7.60
2023-10-06T02:36:22.674Z,7.60
2023-10-06T02:38:52.053Z,7.60
2023-10-06T02:41:26.983Z,7.60
2023-10-06T02:43:58.862Z,7.60
2023-10-06T02:46:27.503Z,7.50
2023-10-06T02:48:56.320Z,7.60
2023-10-06T02:51:31.308Z,7.60
2023-10-06T02:54:21.686Z,7.60
2023-10-06T02:56:52.087Z,7.60
2023-10-06T02:59:23.513Z,7.60
2023-10-06T03:01:53.797Z,7.60
2023-10-06T03:04:26.570Z,7.60
2023-10-06T03:06:57.123Z,7.60
2023-10-06T03:09:37.709Z,7.60
2023-10-06T03:12:16.753Z,7.60
2023-10-06T03:14:45.146Z,7.60
2023-10-06T03:17:14.872Z,7.70
2023-10-06T03:19:44.613Z,7.70
2023-10-06T03:22:15.265Z,7.60
2023-10-06T03:24:55.056Z,7.60
2023-10-06T03:27:25.179Z,7.60
2023-10-06T03:29:56.267Z,7.60
2023-10-06T03:32:33.640Z,7.60
2023-10-06T03:35:13.331Z,7.60
2023-10-06T03:37:53.367Z,7.60
2023-10-06T03:40:24.780Z,7.60
2023-10-06T03:42:55.061Z,7.70
2023-10-06T03:45:30.325Z,7.70
2023-10-06T03:48:13.117Z,7.70
2023-10-06T03:50:44.664Z,7.70
2023-10-06T03:53:15.862Z,7.70
2023-10-06T03:55:47.373Z,7.70
2023-10-06T03:58:19.556Z,7.70
2023-10-06T04:00:51.004Z,7.80
2023-10-06T04:03:20.580Z,7.80
2023-10-06T04:05:51.227Z,7.80
2023-10-06T04:08:22.514Z,7.70
2023-10-06T04:10:56.087Z,7.80
2023-10-06T04:13:26.246Z,7.70
2023-10-06T04:15:55.566Z,7.70
2023-10-06T04:18:25.665Z,7.60
2023-10-06T04:20:56.191Z,7.60
2023-10-06T04:23:25.244Z,7.60
2023-10-06T04:25:57.584Z,7.50
2023-10-06T04:28:29.574Z,7.50
2023-10-06T04:31:02.202Z,7.60
2023-10-06T04:33:30.926Z,7.60
2023-10-06T04:36:01.641Z,7.50
2023-10-06T04:38:30.915Z,7.50
2023-10-06T04:40:59.229Z,7.60
2023-10-06T04:43:28.698Z,7.60
2023-10-06T04:45:57.230Z,7.60
2023-10-06T04:48:25.483Z,7.60
2023-10-06T04:50:55.134Z,7.60
2023-10-06T04:53:23.894Z,7.60
2023-10-06T04:55:52.602Z,7.60
2023-10-06T04:58:20.821Z,7.60
2023-10-06T05:00:54.436Z,7.60
2023-10-06T05:03:24.088Z,7.60
2023-10-06T05:05:56.842Z,7.60
2023-10-06T05:08:25.919Z,7.50
2023-10-06T05:10:57.089Z,7.40
2023-10-06T05:13:27.878Z,7.40
2023-10-06T05:15:57.526Z,7.30
2023-10-06T05:18:25.794Z,7.30
2023-10-06T05:20:54.311Z,7.30
2023-10-06T05:23:22.505Z,7.30
2023-10-06T05:25:50.696Z,7.30
2023-10-06T05:28:18.900Z,7.40
2023-10-06T05:30:47.351Z,7.50
2023-10-06T05:33:17.346Z,7.40
2023-10-06T05:35:46.717Z,7.40
2023-10-06T05:38:15.408Z,7.50
2023-10-06T05:40:45.537Z,7.50
2023-10-06T05:43:14.073Z,7.50
2023-10-06T05:45:43.073Z,7.50
2023-10-06T05:48:12.539Z,7.50
2023-10-06T05:50:42.691Z,7.50
2023-10-06T05:53:14.079Z,7.60
2023-10-06T05:55:43.501Z,7.60
2023-10-06T05:58:15.694Z,7.60
2023-10-06T06:00:52.478Z,7.70
2023-10-06T06:03:22.666Z,7.70
2023-10-06T06:05:54.052Z,7.70
2023-10-06T06:08:22.610Z,7.60
2023-10-06T06:10:51.051Z,7.70
2023-10-06T06:13:21.102Z,7.70
2023-10-06T06:15:51.129Z,7.70
2023-10-06T06:18:19.407Z,7.70
2023-10-06T06:20:47.584Z,7.80
2023-10-06T06:23:17.395Z,7.90
2023-10-06T06:25:46.500Z,8.00
2023-10-06T06:28:15.949Z,8.00
2023-10-06T06:30:44.292Z,8.10
2023-10-06T06:33:14.846Z,8.20
2023-10-06T06:35:43.985Z,8.20
2023-10-06T06:38:14.231Z,8.30
2023-10-06T06:40:44.760Z,8.50
2023-10-06T06:43:12.942Z,8.50
2023-10-06T06:45:45.285Z,8.40
2023-10-06T06:48:15.044Z,8.50
2023-10-06T06:50:44.419Z,8.50
2023-10-06T06:53:13.505Z,8.60
2023-10-06T06:55:44.369Z,8.70
2023-10-06T06:58:13.355Z,8.70
2023-10-06T07:00:42.312Z,8.80
2023-10-06T07:03:12.499Z,8.80
2023-10-06T07:05:41.458Z,8.90
2023-10-06T07:08:10.216Z,8.90
2023-10-06T07:10:40.448Z,8.90
2023-10-06T07:13:11.958Z,9.00
2023-10-06T07:15:40.550Z,9.10
2023-10-06T07:18:07.894Z,9.30
2023-10-06T07:20:36.139Z,9.30
2023-10-06T07:23:05.706Z,9.40
2023-10-06T07:25:34.056Z,9.60
2023-10-06T07:28:02.660Z,9.60
2023-10-06T07:30:35.951Z,9.80
2023-10-06T07:33:07.036Z,10.00
2023-10-06T07:35:43.125Z,9.80
2023-10-06T07:38:13.317Z,9.70
2023-10-06T07:40:43.491Z,9.80
2023-10-06T07:43:14.069Z,10.00
2023-10-06T07:45:44.260Z,10.00
2023-10-06T07:48:12.533Z,10.10
2023-10-06T07:50:40.718Z,10.40
2023-10-06T07:53:08.822Z,10.60
2023-10-06T07:55:38.230Z,10.90
2023-10-06T07:58:09.545Z,11.00
2023-10-06T08:00:43.154Z,11.20
2023-10-06T08:03:14.010Z,11.70
2023-10-06T08:05:42.254Z,11.90
2023-10-06T08:08:10.443Z,12.10
2023-10-06T08:10:39.270Z,12.10
2023-10-06T08:13:09.119Z,12.10
2023-10-06T08:15:41.946Z,12.00
2023-10-06T08:18:10.233Z,11.90
2023-10-06T08:20:41.295Z,11.90
2023-10-06T08:23:09.510Z,11.90
2023-10-06T08:25:53.356Z,11.90
2023-10-06T08:28:27.342Z,11.90
2023-10-06T08:30:56.078Z,11.80
2023-10-06T08:33:27.230Z,11.80
2023-10-06T08:36:01.530Z,12.20
2023-10-06T08:38:31.166Z,13.10
2023-10-06T08:41:04.914Z,13.60
2023-10-06T08:43:33.779Z,13.90
2023-10-06T08:46:03.899Z,13.70
2023-10-06T08:48:34.459Z,13.70
2023-10-06T08:51:12.147Z,14.20
2023-10-06T08:53:46.321Z,14.70
2023-10-06T08:56:18.638Z,15.00
2023-10-06T08:58:47.114Z,15.00
2023-10-06T09:01:16.165Z,15.10
2023-10-06T09:03:44.414Z,15.50
2023-10-06T09:06:15.384Z,16.00
2023-10-06T09:08:46.148Z,16.20
2023-10-06T09:11:16.215Z,16.20
2023-10-06T09:13:44.500Z,16.20
2023-10-06T09:16:13.343Z,16.60
2023-10-06T09:18:42.527Z,17.50
2023-10-06T09:21:20.322Z,18.20
2023-10-06T09:23:50.533Z,18.90
2023-10-06T09:26:30.827Z,19.30
2023-10-06T09:29:02.750Z,19.30
2023-10-06T09:31:40.403Z,18.90
2023-10-06T09:34:11.759Z,18.50
2023-10-06T09:36:45.998Z,18.00
2023-10-06T09:39:27.353Z,17.60
2023-10-06T09:41:56.698Z,17.40
2023-10-06T09:44:28.981Z,17.30
2023-10-06T09:47:02.433Z,17.10
2023-10-06T09:49:34.032Z,16.50
2023-10-06T09:52:06.926Z,16.30
2023-10-06T09:54:39.774Z,17.20
2023-10-06T09:57:08.935Z,18.90
2023-10-06T09:59:39.444Z,19.60
2023-10-06T10:02:13.007Z,19.50
2023-10-06T10:04:43.241Z,20.00
2023-10-06T10:07:14.064Z,21.70
2023-10-06T10:09:44.863Z,22.90
2023-10-06T10:12:38.852Z,22.80
2023-10-06T10:15:26.539Z,22.10
2023-10-06T10:18:07.119Z,23.00
2023-10-06T10:20:38.167Z,23.90
2023-10-06T10:23:08.129Z,24.50
2023-10-06T10:25:38.297Z,24.80
2023-10-06T10:28:18.519Z,25.00
2023-10-06T10:30:54.945Z,25.70
2023-10-06T10:33:23.680Z,26.80
2023-10-06T10:36:32.491Z,26.50
2023-10-06T10:39:13.992Z,26.30
2023-10-06T10:41:42.963Z,26.40
2023-10-06T10:44:25.225Z,26.30
2023-10-06T10:46:57.589Z,26.70
2023-10-06T10:49:26.978Z,26.60
2023-10-06T10:51:58.612Z,26.30
2023-10-06T10:54:30.715Z,25.60
2023-10-06T10:57:07.317Z,25.60
2023-10-06T11:00:18.637Z,25.80
2023-10-06T11:03:04.454Z,25.30
2023-10-06T11:05:33.627Z,24.20
2023-10-06T11:08:06.960Z,23.80
2023-10-06T11:10:39.303Z,24.00
2023-10-06T11:13:20.142Z,24.50
2023-10-06T11:15:50.161Z,23.90
2023-10-06T11:18:21.771Z,23.20
2023-10-06T11:20:51.155Z,23.00
2023-10-06T11:23:19.438Z,23.90
2023-10-06T11:25:52.509Z,24.10
2023-10-06T11:28:21.178Z,24.30
2023-10-06T11:30:50.753Z,24.40
2023-10-06T11:33:21.431Z,24.60
2023-10-06T11:35:50.107Z,24.70
2023-10-06T11:38:18.700Z,24.70
2023-10-06T11:40:47.300Z,24.70
2023-10-06T11:43:20.081Z,23.70
2023-10-06T11:45:49.680Z,22.90
2023-10-06T11:48:30.663Z,23.00
2023-10-06T11:51:07.368Z,23.30
2023-10-06T11:53:36.571Z,23.00
2023-10-06T11:56:11.196Z,23.10
2023-10-06T11:58:42.652Z,23.30
2023-10-06T12:01:33.837Z,23.20
2023-10-06T12:04:05.920Z,23.10
2023-10-06T12:06:41.120Z,22.60
2023-10-06T12:09:14.010Z,22.20
2023-10-06T12:11:42.726Z,22.30
2023-10-06T12:14:13.042Z,22.30
2023-10-06T12:16:46.075Z,21.90
2023-10-06T12:19:15.000Z,21.10
2023-10-06T12:21:43.271Z,20.90
2023-10-06T12:24:12.875Z,21.30
2023-10-06T12:26:41.460Z,22.00
2023-10-06T12:29:11.253Z,22.50
2023-10-06T12:31:40.700Z,22.90
2023-10-06T12:34:09.500Z,23.10
2023-10-06T12:36:38.034Z,23.20
2023-10-06T12:39:06.639Z,23.10
2023-10-06T12:41:35.046Z,22.90
2023-10-06T12:44:11.218Z,22.60
2023-10-06T12:46:41.409Z,22.40
2023-10-06T12:49:09.918Z,22.30
2023-10-06T12:51:38.501Z,22.60
2023-10-06T12:54:08.500Z,23.00
2023-10-06T12:56:37.152Z,23.10
2023-10-06T12:59:06.122Z,23.10
2023-10-06T13:01:35.511Z,22.30
2023-10-06T13:04:07.086Z,22.00
2023-10-06T13:06:36.857Z,21.60
2023-10-06T13:09:05.614Z,21.30
2023-10-06T13:11:34.041Z,21.30
2023-10-06T13:14:07.117Z,21.20
2023-10-06T13:16:36.130Z,21.10
2023-10-06T13:19:06.173Z,21.10
2023-10-06T13:21:34.476Z,21.30
2023-10-06T13:24:06.515Z,21.30
2023-10-06T13:26:43.188Z,21.10
2023-10-06T13:29:12.593Z,20.90
2023-10-06T13:31:42.016Z,20.70
2023-10-06T13:34:11.946Z,20.70
2023-10-06T13:36:42.400Z,20.80
2023-10-06T13:39:16.845Z,20.90
2023-10-06T13:41:45.467Z,20.80
2023-10-06T13:44:14.560Z,20.70
2023-10-06T13:46:43.059Z,20.80
2023-10-06T13:49:13.586Z,20.80
2023-10-06T13:51:42.918Z,20.80
2023-10-06T13:54:11.318Z,20.70
2023-10-06T13:56:40.097Z,20.70
2023-10-06T13:59:08.494Z,20.70
2023-10-06T14:01:37.090Z,20.60
2023-10-06T14:04:05.790Z,20.60
2023-10-06T14:06:35.617Z,20.50
2023-10-06T14:09:06.932Z,20.40
2023-10-06T14:11:35.419Z,20.30
2023-10-06T14:14:17.385Z,20.30
2023-10-06T14:16:47.466Z,20.40
2023-10-06T14:19:18.030Z,20.50
2023-10-06T14:21:51.786Z,20.50
2023-10-06T14:24:20.154Z,20.30
2023-10-06T14:26:48.335Z,20.10
2023-10-06T14:29:16.610Z,19.80
2023-10-06T14:32:00.051Z,19.60
2023-10-06T14:34:47.807Z,19.60
2023-10-06T14:37:37.368Z,19.40
2023-10-06T14:40:23.771Z,19.40
2023-10-06T14:43:09.743Z,19.60
2023-10-06T14:45:55.371Z,19.80
2023-10-06T14:48:28.527Z,20.10
2023-10-06T14:51:01.822Z,20.10
2023-10-06T14:53:31.595Z,20.20
2023-10-06T14:56:02.087Z,20.20
2023-10-06T14:58:35.773Z,20.40
2023-10-06T15:01:09.535Z,20.40
2023-10-06T15:03:37.862Z,20.30
2023-10-06T15:06:06.962Z,20.30
2023-10-06T15:08:36.786Z,20.20
2023-10-06T15:11:05.262Z,20.30
2023-10-06T15:13:37.734Z,20.20
2023-10-06T15:16:09.314Z,20.20
2023-10-06T15:18:38.391Z,20.20
2023-10-06T15:21:06.811Z,20.10
2023-10-06T15:23:36.619Z,20.00
2023-10-06T15:26:08.013Z,20.00
2023-10-06T15:28:39.448Z,19.80
2023-10-06T15:31:08.102Z,19.50
2023-10-06T15:33:36.528Z,19.30
2023-10-06T15:36:06.825Z,19.00
2023-10-06T15:38:37.076Z,18.90
2023-10-06T15:41:11.830Z,18.70
2023-10-06T15:43:41.304Z,18.50
2023-10-06T15:46:12.504Z,18.40
2023-10-06T15:48:42.186Z,18.30
2023-10-06T15:51:13.750Z,18.20
2023-10-06T15:53:45.920Z,18.20
2023-10-06T15:56:15.868Z,18.20
2023-10-06T15:58:46.302Z,18.10
2023-10-06T16:01:16.110Z,18.10
2023-10-06T16:03:48.786Z,18.10
2023-10-06T16:06:21.923Z,17.90
2023-10-06T16:08:51.787Z,17.80
2023-10-06T16:11:19.999Z,17.70
2023-10-06T16:13:48.170Z,17.60
2023-10-06T16:16:19.089Z,17.50
2023-10-06T16:18:50.199Z,17.50
2023-10-06T16:21:18.955Z,17.40
2023-10-06T16:23:57.441Z,17.30
2023-10-06T16:26:34.954Z,17.30
2023-10-06T16:29:04.763Z,17.50
2023-10-06T16:31:33.804Z,17.50
2023-10-06T16:34:02.611Z,17.20
2023-10-06T16:36:30.967Z,17.10
2023-10-06T16:39:05.482Z,16.90
2023-10-06T16:41:35.267Z,16.50
2023-10-06T16:44:06.816Z,16.10
2023-10-06T16:46:35.126Z,15.70
2023-10-06T16:49:07.619Z,15.40
2023-10-06T16:51:36.103Z,15.10
2023-10-06T16:54:05.808Z,14.80
2023-10-06T16:56:35.506Z,14.50
2023-10-06T16:59:03.772Z,14.30
2023-10-06T17:01:32.164Z,14.00
2023-10-06T17:04:05.819Z,13.70
2023-10-06T17:06:34.641Z,13.40
2023-10-06T17:09:03.647Z,13.30
2023-10-06T17:11:32.164Z,13.20
2023-10-06T17:14:01.874Z,13.10
2023-10-06T17:16:30.509Z,13.00
2023-10-06T17:18:59.016Z,12.80
2023-10-06T17:21:27.900Z,12.70
2023-10-06T17:23:56.242Z,12.60
2023-10-06T17:26:24.856Z,12.30
2023-10-06T17:28:53.293Z,12.10
2023-10-06T17:31:22.904Z,11.90
2023-10-06T17:33:53.156Z,11.80
2023-10-06T17:36:21.321Z,11.70
2023-10-06T17:38:49.548Z,11.50
2023-10-06T17:41:18.064Z,11.40
2023-10-06T17:43:47.929Z,11.30
2023-10-06T17:46:17.400Z,11.20
2023-10-06T17:48:48.345Z,11.10
2023-10-06T17:51:20.143Z,11.10
2023-10-06T17:53:49.637Z,10.90
2023-10-06T17:56:19.076Z,10.80
2023-10-06T17:58:48.743Z,10.70
2023-10-06T18:01:17.832Z,10.60
2023-10-06T18:03:49.142Z,10.50
2023-10-06T18:06:18.672Z,10.50
2023-10-06T18:08:49.757Z,10.60
2023-10-06T18:11:18.259Z,10.50
2023-10-06T18:13:47.449Z,10.30
2023-10-06T18:16:15.933Z,10.20
2023-10-06T18:18:44.356Z,10.10
2023-10-06T18:21:14.825Z,10.00
2023-10-06T18:23:43.320Z,10.00
2023-10-06T18:26:20.187Z,10.00
2023-10-06T18:28:48.554Z,10.00
2023-10-06T18:31:16.868Z,9.90
2023-10-06T18:33:46.614Z,9.90
2023-10-06T18:36:16.276Z,9.70
2023-10-06T18:38:45.169Z,9.60
2023-10-06T18:41:14.644Z,9.40
2023-10-06T18:43:43.585Z,9.20
2023-10-06T18:46:12.025Z,9.10
2023-10-06T18:48:41.428Z,9.00
2023-10-06T18:51:09.941Z,9.10
2023-10-06T18:53:39.585Z,9.00
2023-10-06T18:56:07.727Z,9.00
2023-10-06T18:58:37.545Z,8.90
2023-10-06T19:01:07.360Z,8.90
2023-10-06T19:03:37.566Z,8.80
2023-10-06T19:06:07.981Z,8.90
2023-10-06T19:08:40.869Z,9.00
2023-10-06T19:11:13.496Z,8.90
2023-10-06T19:13:41.810Z,8.80
2023-10-06T19:16:12.025Z,8.80
2023-10-06T19:21:39.230Z,8.70
2023-10-06T19:24:09.977Z,8.70
2023-10-06T19:26:39.641Z,8.60
2023-10-06T19:29:08.622Z,8.50
2023-10-06T19:31:37.538Z,8.50
2023-10-06T19:34:06.231Z,8.40
2023-10-06T19:36:35.585Z,8.40
2023-10-06T19:39:05.264Z,8.40
2023-10-06T19:41:33.850Z,8.40
2023-10-06T19:44:03.993Z,8.40
2023-10-06T19:46:32.644Z,8.30
2023-10-06T19:49:01.283Z,8.30
2023-10-06T19:51:30.000Z,8.10
2023-10-06T19:53:58.735Z,8.10
2023-10-06T19:56:27.066Z,8.20
2023-10-06T19:58:56.255Z,8.10
2023-10-06T20:01:26.224Z,8.00
2023-10-06T20:03:54.668Z,7.90
2023-10-06T20:06:22.910Z,7.90
2023-10-06T20:08:51.067Z,7.90
2023-10-06T20:11:20.652Z,7.90
2023-10-06T20:13:49.339Z,8.00
2023-10-06T20:16:17.816Z,8.20
2023-10-06T20:18:48.000Z,8.10
2023-10-06T20:21:18.997Z,8.00
2023-10-06T20:23:51.181Z,7.80
2023-10-06T20:26:19.589Z,7.60
2023-10-06T20:28:47.799Z,7.50
2023-10-06T20:31:16.104Z,7.50
2023-10-06T20:33:44.427Z,7.60
2023-10-06T20:36:14.040Z,7.70
2023-10-06T20:38:42.465Z,7.60
2023-10-06T20:41:10.670Z,7.50
2023-10-06T20:43:39.976Z,7.60
2023-10-06T20:46:09.923Z,7.60
2023-10-06T20:48:38.510Z,7.60
2023-10-06T20:51:08.002Z,7.60
2023-10-06T20:53:38.049Z,7.70
2023-10-06T20:56:07.943Z,7.60
2023-10-06T20:58:36.448Z,7.50
2023-10-06T21:01:08.188Z,7.50
2023-10-06T21:03:36.833Z,7.50
2023-10-06T21:06:05.593Z,7.60
2023-10-06T21:08:33.819Z,7.60
2023-10-06T21:11:03.581Z,7.50
2023-10-06T21:13:31.965Z,7.50
2023-10-06T21:16:00.450Z,7.40
2023-10-06T21:18:29.119Z,7.30
2023-10-06T21:20:57.336Z,7.20
2023-10-06T21:23:26.675Z,7.20
2023-10-06T21:25:55.200Z,7.40
2023-10-06T21:28:24.806Z,7.40
2023-10-06T21:30:53.007Z,7.30
2023-10-06T21:33:21.261Z,7.40
2023-10-06T21:35:49.411Z,7.40
2023-10-06T21:38:17.626Z,7.40
2023-10-06T21:40:48.062Z,7.40
2023-10-06T21:43:16.879Z,7.30
2023-10-06T21:45:47.127Z,7.20
2023-10-06T21:48:16.748Z,7.00
2023-10-06T21:50:48.905Z,6.90
2023-10-06T21:53:17.580Z,6.80
2023-10-06T21:55:46.327Z,6.80
2023-10-06T21:58:14.565Z,6.90
2023-10-06T22:00:45.197Z,7.00
2023-10-06T22:03:15.263Z,7.10
2023-10-06T22:05:43.631Z,7.00
2023-10-06T22:08:12.483Z,6.90
2023-10-06T22:10:40.898Z,6.90
2023-10-06T22:13:09.283Z,6.90
2023-10-06T22:15:37.932Z,6.80
2023-10-06T22:18:07.237Z,6.70
2023-10-06T22:20:36.964Z,6.70
2023-10-06T22:23:06.708Z,6.60
2023-10-06T22:25:38.212Z,6.60
2023-10-06T22:28:07.341Z,6.60
2023-10-06T22:30:37.895Z,6.70
2023-10-06T22:33:06.971Z,6.70
2023-10-06T22:35:36.647Z,6.70
2023-10-06T22:38:05.449Z,6.90
2023-10-06T22:40:34.598Z,6.90
2023-10-06T22:43:03.463Z,6.90
2023-10-06T22:45:31.658Z,6.90
2023-10-06T22:48:01.655Z,6.90
2023-10-06T22:50:29.926Z,6.80
2023-10-06T22:53:00.496Z,6.70
2023-10-06T22:55:30.426Z,6.70
2023-10-06T22:57:59.061Z,6.70
2023-10-06T23:00:29.962Z,6.70
2023-10-06T23:02:58.837Z,6.60
2023-10-06T23:05:27.557Z,6.50
2023-10-06T23:07:55.878Z,6.30
2023-10-06T23:10:27.693Z,6.10
2023-10-06T23:12:56.926Z,6.00
2023-10-06T23:15:29.804Z,6.10
2023-10-06T23:17:58.068Z,6.20
2023-10-06T23:20:26.410Z,6.30
2023-10-06T23:22:59.688Z,6.30
2023-10-06T23:25:37.562Z,6.30
2023-10-06T23:28:08.671Z,6.30
2023-10-06T23:30:38.073Z,6.30
2023-10-06T23:33:07.554Z,6.30
2023-10-06T23:35:36.202Z,6.10
2023-10-06T23:38:07.795Z,6.00
2023-10-06T23:40:43.456Z,6.10
2023-10-06T23:43:12.182Z,6.20
2023-10-06T23:45:43.985Z,6.50
2023-10-06T23:48:12.711Z,6.80
2023-10-06T23:50:52.897Z,7.10
2023-10-06T23:53:28.995Z,7.40
2023-10-06T23:56:01.670Z,7.60
2023-10-06T23:58:34.461Z,7.70
